sensor_id;sensor_type;location;lat;lon;timestamp;pressure;altitude;pressure_sealevel;temperature;humidity
65880;BME280;52661;51.364;6.054;2023-02-22T00:00:16;101179.69;;;5.99;100.00
65880;BME280;52661;51.364;6.054;2023-02-22T00:02:51;101170.19;;;5.89;100.00
65880;BME280;52661;51.364;6.054;2023-02-22T00:05:25;101169.84;;;5.91;100.00
65880;BME280;52661;51.364;6.054;2023-02-22T00:07:50;101182.19;;;5.92;100.00
65880;BME280;52661;51.364;6.054;2023-02-22T00:10:16;101172.38;;;6.00;100.00
65880;BME280;52661;51.364;6.054;2023-02-22T00:12:48;101175.22;;;5.91;100.00
65880;BME280;52661;51.364;6.054;2023-02-22T00:15:15;101176.72;;;5.88;100.00
65880;BME280;52661;51.364;6.054;2023-02-22T00:17:42;101173.91;;;5.85;100.00
65880;BME280;52661;51.364;6.054;2023-02-22T00:20:08;101173.66;;;5.90;100.00
65880;BME280;52661;51.364;6.054;2023-02-22T00:22:42;101173.22;;;5.88;100.00
65880;BME280;52661;51.364;6.054;2023-02-22T00:25:08;101166.81;;;5.92;100.00
65880;BME280;52661;51.364;6.054;2023-02-22T00:27:35;101170.63;;;5.91;100.00
65880;BME280;52661;51.364;6.054;2023-02-22T00:30:00;101169.16;;;5.94;100.00
65880;BME280;52661;51.364;6.054;2023-02-22T00:32:26;101168.34;;;5.93;100.00
65880;BME280;52661;51.364;6.054;2023-02-22T00:34:53;101168.91;;;5.99;100.00
65880;BME280;52661;51.364;6.054;2023-02-22T00:37:19;101169.94;;;5.94;100.00
65880;BME280;52661;51.364;6.054;2023-02-22T00:39:48;101168.13;;;5.99;100.00
65880;BME280;52661;51.364;6.054;2023-02-22T00:42:16;101167.78;;;6.00;100.00
65880;BME280;52661;51.364;6.054;2023-02-22T00:44:41;101170.56;;;6.04;100.00
65880;BME280;52661;51.364;6.054;2023-02-22T00:47:07;101178.09;;;5.98;100.00
65880;BME280;52661;51.364;6.054;2023-02-22T00:49:33;101175.16;;;6.03;100.00
65880;BME280;52661;51.364;6.054;2023-02-22T00:51:59;101170.19;;;6.05;100.00
65880;BME280;52661;51.364;6.054;2023-02-22T00:54:25;101171.78;;;6.06;100.00
65880;BME280;52661;51.364;6.054;2023-02-22T00:56:50;101165.69;;;6.09;100.00
65880;BME280;52661;51.364;6.054;2023-02-22T00:59:15;101159.00;;;6.03;100.00
65880;BME280;52661;51.364;6.054;2023-02-22T01:01:41;101165.25;;;6.07;100.00
65880;BME280;52661;51.364;6.054;2023-02-22T01:04:07;101151.09;;;6.10;100.00
65880;BME280;52661;51.364;6.054;2023-02-22T01:06:33;101142.31;;;6.13;100.00
65880;BME280;52661;51.364;6.054;2023-02-22T01:08:58;101145.88;;;6.17;100.00
65880;BME280;52661;51.364;6.054;2023-02-22T01:11:24;101147.69;;;6.13;100.00
65880;BME280;52661;51.364;6.054;2023-02-22T01:13:49;101138.50;;;6.14;100.00
65880;BME280;52661;51.364;6.054;2023-02-22T01:16:18;101138.31;;;6.07;100.00
65880;BME280;52661;51.364;6.054;2023-02-22T01:18:44;101135.88;;;6.02;100.00
65880;BME280;52661;51.364;6.054;2023-02-22T01:21:09;101130.91;;;6.04;100.00
65880;BME280;52661;51.364;6.054;2023-02-22T01:23:34;101129.00;;;6.05;100.00
65880;BME280;52661;51.364;6.054;2023-02-22T01:25:59;101119.28;;;6.00;100.00
65880;BME280;52661;51.364;6.054;2023-02-22T01:28:25;101118.59;;;6.03;100.00
65880;BME280;52661;51.364;6.054;2023-02-22T01:30:50;101125.19;;;6.06;100.00
65880;BME280;52661;51.364;6.054;2023-02-22T01:33:16;101118.59;;;6.03;100.00
65880;BME280;52661;51.364;6.054;2023-02-22T01:35:42;101125.19;;;6.06;100.00
65880;BME280;52661;51.364;6.054;2023-02-22T01:38:10;101123.34;;;6.10;100.00
65880;BME280;52661;51.364;6.054;2023-02-22T01:40:38;101117.88;;;6.06;100.00
65880;BME280;52661;51.364;6.054;2023-02-22T01:43:27;101123.88;;;6.15;100.00
65880;BME280;52661;51.364;6.054;2023-02-22T01:45:57;101127.00;;;6.17;100.00
65880;BME280;52661;51.364;6.054;2023-02-22T01:48:29;101116.22;;;6.17;100.00
65880;BME280;52661;51.364;6.054;2023-02-22T01:51:03;101115.44;;;6.17;100.00
65880;BME280;52661;51.364;6.054;2023-02-22T01:56:06;101106.50;;;6.13;100.00
65880;BME280;52661;51.364;6.054;2023-02-22T01:58:34;101109.97;;;6.13;100.00
65880;BME280;52661;51.364;6.054;2023-02-22T02:01:00;101107.63;;;6.12;100.00
65880;BME280;52661;51.364;6.054;2023-02-22T02:03:29;101094.41;;;6.07;100.00
65880;BME280;52661;51.364;6.054;2023-02-22T02:05:58;101099.34;;;6.05;100.00
65880;BME280;52661;51.364;6.054;2023-02-22T02:11:15;101100.22;;;6.09;100.00
65880;BME280;52661;51.364;6.054;2023-02-22T02:13:42;101097.97;;;6.11;100.00
65880;BME280;52661;51.364;6.054;2023-02-22T02:16:07;101097.72;;;6.00;100.00
65880;BME280;52661;51.364;6.054;2023-02-22T02:18:33;101092.16;;;5.93;100.00
65880;BME280;52661;51.364;6.054;2023-02-22T02:26:45;101087.03;;;5.88;100.00
65880;BME280;52661;51.364;6.054;2023-02-22T02:32:56;101073.44;;;5.84;100.00
65880;BME280;52661;51.364;6.054;2023-02-22T02:35:42;101072.66;;;5.84;100.00
65880;BME280;52661;51.364;6.054;2023-02-22T02:38:27;101063.19;;;5.74;100.00
65880;BME280;52661;51.364;6.054;2023-02-22T02:41:16;101067.19;;;5.80;100.00
65880;BME280;52661;51.364;6.054;2023-02-22T02:44:00;101055.63;;;5.80;100.00
65880;BME280;52661;51.364;6.054;2023-02-22T02:46:33;101057.63;;;5.83;100.00
65880;BME280;52661;51.364;6.054;2023-02-22T02:49:06;101061.09;;;5.83;100.00
65880;BME280;52661;51.364;6.054;2023-02-22T02:51:39;101050.88;;;5.89;100.00
65880;BME280;52661;51.364;6.054;2023-02-22T02:54:07;101058.75;;;5.82;100.00
65880;BME280;52661;51.364;6.054;2023-02-22T02:56:33;101055.69;;;5.83;100.00
65880;BME280;52661;51.364;6.054;2023-02-22T02:58:59;101049.31;;;5.88;100.00
65880;BME280;52661;51.364;6.054;2023-02-22T03:04:22;101051.84;;;5.97;100.00
65880;BME280;52661;51.364;6.054;2023-02-22T03:07:00;101046.00;;;5.94;100.00
65880;BME280;52661;51.364;6.054;2023-02-22T03:12:41;101050.78;;;6.01;100.00
65880;BME280;52661;51.364;6.054;2023-02-22T03:15:22;101045.66;;;5.96;100.00
65880;BME280;52661;51.364;6.054;2023-02-22T03:18:07;101048.88;;;5.86;100.00
65880;BME280;52661;51.364;6.054;2023-02-22T03:20:49;101036.84;;;5.83;100.00
65880;BME280;52661;51.364;6.054;2023-02-22T03:23:21;101042.50;;;5.78;100.00
65880;BME280;52661;51.364;6.054;2023-02-22T03:26:06;101038.34;;;5.81;100.00
65880;BME280;52661;51.364;6.054;2023-02-22T03:28:35;101030.59;;;5.79;100.00
65880;BME280;52661;51.364;6.054;2023-02-22T03:31:09;101033.03;;;5.84;100.00
65880;BME280;52661;51.364;6.054;2023-02-22T03:33:43;101031.13;;;5.85;100.00
65880;BME280;52661;51.364;6.054;2023-02-22T03:36:18;101034.28;;;5.87;100.00
65880;BME280;52661;51.364;6.054;2023-02-22T03:38:47;101026.84;;;5.84;100.00
65880;BME280;52661;51.364;6.054;2023-02-22T03:41:16;101032.25;;;5.84;100.00
65880;BME280;52661;51.364;6.054;2023-02-22T03:43:46;101040.00;;;5.85;100.00
65880;BME280;52661;51.364;6.054;2023-02-22T03:46:14;101029.47;;;5.80;100.00
65880;BME280;52661;51.364;6.054;2023-02-22T03:48:47;101024.09;;;5.80;100.00
65880;BME280;52661;51.364;6.054;2023-02-22T03:51:16;101030.88;;;5.90;100.00
65880;BME280;52661;51.364;6.054;2023-02-22T03:53:42;101024.03;;;5.92;100.00
65880;BME280;52661;51.364;6.054;2023-02-22T03:56:12;101023.25;;;5.92;100.00
65880;BME280;52661;51.364;6.054;2023-02-22T03:58:40;101027.84;;;5.91;100.00
65880;BME280;52661;51.364;6.054;2023-02-22T04:01:08;101024.81;;;5.93;100.00
65880;BME280;52661;51.364;6.054;2023-02-22T04:03:34;101026.44;;;5.98;100.00
65880;BME280;52661;51.364;6.054;2023-02-22T04:05:59;101019.44;;;5.93;100.00
65880;BME280;52661;51.364;6.054;2023-02-22T04:08:24;101014.47;;;5.95;100.00
65880;BME280;52661;51.364;6.054;2023-02-22T04:10:50;101009.50;;;5.97;100.00
65880;BME280;52661;51.364;6.054;2023-02-22T04:13:15;101008.66;;;5.93;100.00
65880;BME280;52661;51.364;6.054;2023-02-22T04:15:41;101009.84;;;5.96;100.00
65880;BME280;52661;51.364;6.054;2023-02-22T04:18:06;101007.16;;;5.96;100.00
65880;BME280;52661;51.364;6.054;2023-02-22T04:20:32;101009.94;;;5.99;100.00
65880;BME280;52661;51.364;6.054;2023-02-22T04:22:59;100998.91;;;5.88;100.00
65880;BME280;52661;51.364;6.054;2023-02-22T04:25:24;101002.47;;;5.92;100.00
65880;BME280;52661;51.364;6.054;2023-02-22T04:27:50;100998.78;;;6.01;100.00
65880;BME280;52661;51.364;6.054;2023-02-22T04:30:19;100993.16;;;5.90;100.00
65880;BME280;52661;51.364;6.054;2023-02-22T04:32:44;100993.16;;;5.90;100.00
65880;BME280;52661;51.364;6.054;2023-02-22T04:35:10;100988.56;;;5.90;100.00
65880;BME280;52661;51.364;6.054;2023-02-22T04:37:35;100984.31;;;5.89;100.00
65880;BME280;52661;51.364;6.054;2023-02-22T04:40:01;100976.25;;;5.89;100.00
65880;BME280;52661;51.364;6.054;2023-02-22T04:42:28;100981.72;;;5.93;100.00
65880;BME280;52661;51.364;6.054;2023-02-22T04:44:53;100975.94;;;5.94;100.00
65880;BME280;52661;51.364;6.054;2023-02-22T04:47:19;100970.31;;;6.00;100.00
65880;BME280;52661;51.364;6.054;2023-02-22T04:49:44;100967.31;;;6.05;100.00
65880;BME280;52661;51.364;6.054;2023-02-22T04:52:10;100976.97;;;6.06;100.00
65880;BME280;52661;51.364;6.054;2023-02-22T04:54:35;100972.28;;;6.03;100.00
65880;BME280;52661;51.364;6.054;2023-02-22T04:57:00;100960.91;;;5.93;100.00
65880;BME280;52661;51.364;6.054;2023-02-22T04:59:26;100966.22;;;5.90;100.00
65880;BME280;52661;51.364;6.054;2023-02-22T05:01:51;100967.47;;;5.92;100.00
65880;BME280;52661;51.364;6.054;2023-02-22T05:04:17;100956.31;;;5.94;100.00
65880;BME280;52661;51.364;6.054;2023-02-22T05:06:43;100957.97;;;5.99;100.00
65880;BME280;52661;51.364;6.054;2023-02-22T05:09:08;100957.97;;;5.99;100.00
65880;BME280;52661;51.364;6.054;2023-02-22T05:11:33;100951.28;;;5.92;100.00
65880;BME280;52661;51.364;6.054;2023-02-22T05:13:58;100943.28;;;5.96;100.00
65880;BME280;52661;51.364;6.054;2023-02-22T05:16:24;100941.22;;;5.89;100.00
65880;BME280;52661;51.364;6.054;2023-02-22T05:18:50;100941.00;;;5.82;100.00
65880;BME280;52661;51.364;6.054;2023-02-22T05:21:16;100943.13;;;5.73;100.00
65880;BME280;52661;51.364;6.054;2023-02-22T05:23:41;100941.63;;;5.76;100.00
65880;BME280;52661;51.364;6.054;2023-02-22T05:26:06;100940.84;;;5.75;100.00
65880;BME280;52661;51.364;6.054;2023-02-22T05:28:32;100938.50;;;5.74;100.00
65880;BME280;52661;51.364;6.054;2023-02-22T05:30:57;100934.16;;;5.69;100.00
65880;BME280;52661;51.364;6.054;2023-02-22T05:33:23;100934.47;;;5.64;100.00
65880;BME280;52661;51.364;6.054;2023-02-22T05:35:48;100929.91;;;5.68;100.00
65880;BME280;52661;51.364;6.054;2023-02-22T05:38:15;100931.84;;;5.68;100.00
65880;BME280;52661;51.364;6.054;2023-02-22T05:40:41;100938.34;;;5.67;100.00
65880;BME280;52661;51.364;6.054;2023-02-22T05:43:06;100927.91;;;5.65;100.00
65880;BME280;52661;51.364;6.054;2023-02-22T05:45:32;100928.44;;;5.71;100.00
65880;BME280;52661;51.364;6.054;2023-02-22T05:47:57;100928.69;;;5.66;100.00
65880;BME280;52661;51.364;6.054;2023-02-22T05:50:23;100924.44;;;5.65;100.00
65880;BME280;52661;51.364;6.054;2023-02-22T05:52:49;100927.91;;;5.65;100.00
65880;BME280;52661;51.364;6.054;2023-02-22T05:55:17;100920.72;;;5.69;100.00
65880;BME280;52661;51.364;6.054;2023-02-22T05:57:43;100918.81;;;5.70;100.00
65880;BME280;52661;51.364;6.054;2023-02-22T06:00:09;100922.78;;;5.76;100.00
65880;BME280;52661;51.364;6.054;2023-02-22T06:02:35;100913.16;;;5.75;100.00
65880;BME280;52661;51.364;6.054;2023-02-22T06:05:00;100912.38;;;5.74;100.00
65880;BME280;52661;51.364;6.054;2023-02-22T06:07:26;100907.34;;;5.57;100.00
65880;BME280;52661;51.364;6.054;2023-02-22T06:09:52;100906.84;;;5.52;100.00
65880;BME280;52661;51.364;6.054;2023-02-22T06:12:17;100910.94;;;5.45;100.00
65880;BME280;52661;51.364;6.054;2023-02-22T06:14:43;100903.66;;;5.46;100.00
65880;BME280;52661;51.364;6.054;2023-02-22T06:17:11;100914.56;;;5.53;100.00
65880;BME280;52661;51.364;6.054;2023-02-22T06:19:37;100915.88;;;5.59;100.00
65880;BME280;52661;51.364;6.054;2023-02-22T06:22:05;100910.56;;;5.63;100.00
65880;BME280;52661;51.364;6.054;2023-02-22T06:24:30;100903.53;;;5.58;100.00
65880;BME280;52661;51.364;6.054;2023-02-22T06:26:58;100896.78;;;5.49;100.00
65880;BME280;52661;51.364;6.054;2023-02-22T06:29:24;100897.19;;;5.51;100.00
65880;BME280;52661;51.364;6.054;2023-02-22T06:31:50;100894.41;;;5.47;100.00
65880;BME280;52661;51.364;6.054;2023-02-22T06:34:16;100902.41;;;5.43;100.00
65880;BME280;52661;51.364;6.054;2023-02-22T06:36:42;100895.97;;;5.48;100.00
65880;BME280;52661;51.364;6.054;2023-02-22T06:39:08;100895.38;;;5.39;100.00
65880;BME280;52661;51.364;6.054;2023-02-22T06:41:38;100891.38;;;5.33;100.00
65880;BME280;52661;51.364;6.054;2023-02-22T06:44:04;100887.81;;;5.29;100.00
65880;BME280;52661;51.364;6.054;2023-02-22T06:46:30;100893.81;;;5.22;100.00
65880;BME280;52661;51.364;6.054;2023-02-22T06:48:55;100898.09;;;5.23;100.00
65880;BME280;52661;51.364;6.054;2023-02-22T06:51:23;100891.50;;;5.21;100.00
65880;BME280;52661;51.364;6.054;2023-02-22T06:53:48;100894.09;;;5.17;100.00
65880;BME280;52661;51.364;6.054;2023-02-22T06:56:14;100887.25;;;5.20;100.00
65880;BME280;52661;51.364;6.054;2023-02-22T06:58:39;100888.19;;;5.12;100.00
65880;BME280;52661;51.364;6.054;2023-02-22T07:01:04;100886.69;;;5.14;100.00
65880;BME280;52661;51.364;6.054;2023-02-22T07:03:33;100879.41;;;5.15;100.00
65880;BME280;52661;51.364;6.054;2023-02-22T07:05:58;100880.19;;;5.15;100.00
65880;BME280;52661;51.364;6.054;2023-02-22T07:08:23;100884.00;;;5.14;100.00
65880;BME280;52661;51.364;6.054;2023-02-22T07:10:49;100885.75;;;5.07;100.00
65880;BME280;52661;51.364;6.054;2023-02-22T07:13:14;100879.00;;;5.13;100.00
65880;BME280;52661;51.364;6.054;2023-02-22T07:15:40;100885.16;;;5.13;100.00
65880;BME280;52661;51.364;6.054;2023-02-22T07:18:06;100887.06;;;5.13;100.00
65880;BME280;52661;51.364;6.054;2023-02-22T07:20:32;100884.28;;;5.09;100.00
65880;BME280;52661;51.364;6.054;2023-02-22T07:22:58;100876.56;;;5.08;100.00
65880;BME280;52661;51.364;6.054;2023-02-22T07:25:24;100880.72;;;5.05;100.00
65880;BME280;52661;51.364;6.054;2023-02-22T07:27:50;100885.41;;;5.08;100.00
65880;BME280;52661;51.364;6.054;2023-02-22T07:30:18;100886.19;;;5.09;100.00
65880;BME280;52661;51.364;6.054;2023-02-22T07:32:45;100885.16;;;4.97;100.00
65880;BME280;52661;51.364;6.054;2023-02-22T07:35:15;100880.72;;;4.89;100.00
65880;BME280;52661;51.364;6.054;2023-02-22T07:37:41;100886.19;;;4.93;100.00
65880;BME280;52661;51.364;6.054;2023-02-22T07:40:07;100892.19;;;5.02;100.00
65880;BME280;52661;51.364;6.054;2023-02-22T07:42:33;100888.59;;;5.14;100.00
65880;BME280;52661;51.364;6.054;2023-02-22T07:44:58;100886.34;;;5.00;100.00
65880;BME280;52661;51.364;6.054;2023-02-22T07:47:23;100891.13;;;5.07;100.00
65880;BME280;52661;51.364;6.054;2023-02-22T07:49:49;100892.34;;;5.09;100.00
65880;BME280;52661;51.364;6.054;2023-02-22T07:52:14;100895.75;;;5.06;100.00
65880;BME280;52661;51.364;6.054;2023-02-22T07:54:39;100892.34;;;5.09;100.00
65880;BME280;52661;51.364;6.054;2023-02-22T07:57:05;100892.09;;;5.14;100.00
65880;BME280;52661;51.364;6.054;2023-02-22T07:59:30;100900.16;;;5.30;100.00
65880;BME280;52661;51.364;6.054;2023-02-22T08:01:58;100897.31;;;5.23;100.00
65880;BME280;52661;51.364;6.054;2023-02-22T08:04:23;100893.75;;;5.34;100.00
65880;BME280;52661;51.364;6.054;2023-02-22T08:06:48;100905.53;;;5.30;100.00
65880;BME280;52661;51.364;6.054;2023-02-22T08:09:14;100895.56;;;5.30;100.00
65880;BME280;52661;51.364;6.054;2023-02-22T08:11:39;100894.78;;;5.30;100.00
65880;BME280;52661;51.364;6.054;2023-02-22T08:14:05;100889.72;;;5.28;100.00
65880;BME280;52661;51.364;6.054;2023-02-22T08:16:31;100889.06;;;5.31;100.00
65880;BME280;52661;51.364;6.054;2023-02-22T08:18:56;100890.34;;;5.37;100.00
65880;BME280;52661;51.364;6.054;2023-02-22T08:21:21;100887.03;;;5.44;100.00
65880;BME280;52661;51.364;6.054;2023-02-22T08:23:50;100889.03;;;5.47;100.00
65880;BME280;52661;51.364;6.054;2023-02-22T08:26:18;100891.38;;;5.49;100.00
65880;BME280;52661;51.364;6.054;2023-02-22T08:28:44;100895.28;;;5.51;100.00
65880;BME280;52661;51.364;6.054;2023-02-22T08:31:10;100889.81;;;5.63;100.00
65880;BME280;52661;51.364;6.054;2023-02-22T08:33:35;100896.31;;;5.62;100.00
65880;BME280;52661;51.364;6.054;2023-02-22T08:36:00;100890.59;;;5.64;100.00
65880;BME280;52661;51.364;6.054;2023-02-22T08:38:29;100900.03;;;5.73;100.00
65880;BME280;52661;51.364;6.054;2023-02-22T08:40:55;100892.72;;;5.74;100.00
65880;BME280;52661;51.364;6.054;2023-02-22T08:43:21;100897.06;;;5.78;100.00
65880;BME280;52661;51.364;6.054;2023-02-22T08:45:47;100892.44;;;5.79;100.00
65880;BME280;52661;51.364;6.054;2023-02-22T08:48:13;100900.38;;;5.87;100.00
65880;BME280;52661;51.364;6.054;2023-02-22T08:50:39;100893.06;;;5.88;100.00
65880;BME280;52661;51.364;6.054;2023-02-22T08:53:07;100899.59;;;5.87;100.00
65880;BME280;52661;51.364;6.054;2023-02-22T08:55:35;100897.50;;;5.96;100.00
65880;BME280;52661;51.364;6.054;2023-02-22T08:58:03;100887.91;;;5.99;100.00
65880;BME280;52661;51.364;6.054;2023-02-22T09:00:31;100884.94;;;6.04;100.00
65880;BME280;52661;51.364;6.054;2023-02-22T09:02:57;100883.53;;;6.10;100.00
65880;BME280;52661;51.364;6.054;2023-02-22T09:05:23;100876.00;;;6.19;100.00
65880;BME280;52661;51.364;6.054;2023-02-22T09:07:48;100880.78;;;6.25;100.00
65880;BME280;52661;51.364;6.054;2023-02-22T09:10:16;100881.91;;;6.24;100.00
65880;BME280;52661;51.364;6.054;2023-02-22T09:12:42;100880.13;;;6.32;100.00
65880;BME280;52661;51.364;6.054;2023-02-22T09:15:09;100881.69;;;6.33;100.00
65880;BME280;52661;51.364;6.054;2023-02-22T09:17:34;100877.50;;;6.35;100.00
65880;BME280;52661;51.364;6.054;2023-02-22T09:20:05;100871.59;;;6.49;100.00
65880;BME280;52661;51.364;6.054;2023-02-22T09:22:31;100872.50;;;6.57;100.00
65880;BME280;52661;51.364;6.054;2023-02-22T09:24:56;100874.03;;;6.54;100.00
65880;BME280;52661;51.364;6.054;2023-02-22T09:27:21;100866.13;;;6.65;100.00
65880;BME280;52661;51.364;6.054;2023-02-22T09:29:47;100868.16;;;6.71;100.00
65880;BME280;52661;51.364;6.054;2023-02-22T09:32:13;100866.97;;;6.69;100.00
65880;BME280;52661;51.364;6.054;2023-02-22T09:34:42;100861.63;;;6.72;100.00
65880;BME280;52661;51.364;6.054;2023-02-22T09:37:10;100864.66;;;6.90;100.00
65880;BME280;52661;51.364;6.054;2023-02-22T09:39:35;100858.25;;;6.98;100.00
65880;BME280;52661;51.364;6.054;2023-02-22T09:44:49;100853.97;;;7.20;100.00
65880;BME280;52661;51.364;6.054;2023-02-22T09:47:21;100845.50;;;7.21;100.00
65880;BME280;52661;51.364;6.054;2023-02-22T09:50:03;100840.16;;;7.25;100.00
65880;BME280;52661;51.364;6.054;2023-02-22T09:52:38;100838.75;;;7.34;100.00
65880;BME280;52661;51.364;6.054;2023-02-22T09:55:19;100831.28;;;7.51;100.00
65880;BME280;52661;51.364;6.054;2023-02-22T09:57:51;100839.44;;;7.54;100.00
65880;BME280;52661;51.364;6.054;2023-02-22T10:00:22;100830.22;;;7.59;100.00
65880;BME280;52661;51.364;6.054;2023-02-22T10:05:39;100832.28;;;7.69;100.00
65880;BME280;52661;51.364;6.054;2023-02-22T10:08:15;100830.19;;;7.85;100.00
65880;BME280;52661;51.364;6.054;2023-02-22T10:10:44;100832.56;;;7.90;100.00
65880;BME280;52661;51.364;6.054;2023-02-22T10:13:28;100824.25;;;8.02;100.00
65880;BME280;52661;51.364;6.054;2023-02-22T10:16:06;100818.53;;;8.11;100.00
65880;BME280;52661;51.364;6.054;2023-02-22T10:21:47;100827.28;;;8.30;100.00
65880;BME280;52661;51.364;6.054;2023-02-22T10:26:44;100818.56;;;8.48;100.00
65880;BME280;52661;51.364;6.054;2023-02-22T10:31:44;100824.09;;;8.58;100.00
65880;BME280;52661;51.364;6.054;2023-02-22T10:34:16;100827.66;;;8.66;100.00
65880;BME280;52661;51.364;6.054;2023-02-22T10:36:47;100822.00;;;8.81;100.00
65880;BME280;52661;51.364;6.054;2023-02-22T10:42:02;100823.34;;;9.05;100.00
65880;BME280;52661;51.364;6.054;2023-02-22T10:44:36;100811.38;;;9.06;100.00
65880;BME280;52661;51.364;6.054;2023-02-22T10:47:04;100803.84;;;9.33;100.00
65880;BME280;52661;51.364;6.054;2023-02-22T10:49:41;100810.44;;;9.39;100.00
65880;BME280;52661;51.364;6.054;2023-02-22T10:52:34;100813.31;;;9.67;100.00
65880;BME280;52661;51.364;6.054;2023-02-22T10:55:00;100824.94;;;9.71;100.00
65880;BME280;52661;51.364;6.054;2023-02-22T10:57:34;100822.28;;;9.78;100.00
65880;BME280;52661;51.364;6.054;2023-02-22T11:00:21;100819.97;;;9.87;100.00
65880;BME280;52661;51.364;6.054;2023-02-22T11:03:01;100824.25;;;9.88;100.00
65880;BME280;52661;51.364;6.054;2023-02-22T11:05:35;100822.78;;;9.98;100.00
65880;BME280;52661;51.364;6.054;2023-02-22T11:10:46;100819.69;;;10.07;100.00
65880;BME280;52661;51.364;6.054;2023-02-22T11:13:32;100820.53;;;10.21;100.00
65880;BME280;52661;51.364;6.054;2023-02-22T11:16:00;100825.22;;;10.38;100.00
65880;BME280;52661;51.364;6.054;2023-02-22T11:18:32;100821.78;;;10.42;100.00
65880;BME280;52661;51.364;6.054;2023-02-22T11:21:01;100814.81;;;10.48;100.00
65880;BME280;52661;51.364;6.054;2023-02-22T11:23:27;100807.44;;;10.55;100.00
65880;BME280;52661;51.364;6.054;2023-02-22T11:26:08;100805.50;;;10.42;100.00
65880;BME280;52661;51.364;6.054;2023-02-22T11:28:35;100810.16;;;10.52;100.00
65880;BME280;52661;51.364;6.054;2023-02-22T11:31:10;100809.38;;;10.58;100.00
65880;BME280;52661;51.364;6.054;2023-02-22T11:33:37;100814.47;;;10.67;100.00
65880;BME280;52661;51.364;6.054;2023-02-22T11:36:04;100797.38;;;10.66;100.00
65880;BME280;52661;51.364;6.054;2023-02-22T11:38:38;100796.19;;;10.67;100.00
65880;BME280;52661;51.364;6.054;2023-02-22T11:43:32;100798.16;;;10.81;100.00
65880;BME280;52661;51.364;6.054;2023-02-22T11:46:10;100793.91;;;10.91;100.00
65880;BME280;52661;51.364;6.054;2023-02-22T11:48:40;100790.41;;;10.90;100.00
65880;BME280;52661;51.364;6.054;2023-02-22T11:51:16;100790.81;;;10.92;100.00
65880;BME280;52661;51.364;6.054;2023-02-22T11:56:21;100783.03;;;11.05;100.00
65880;BME280;52661;51.364;6.054;2023-02-22T12:01:22;100783.03;;;11.01;100.00
65880;BME280;52661;51.364;6.054;2023-02-22T12:04:22;100776.44;;;10.95;100.00
65880;BME280;52661;51.364;6.054;2023-02-22T12:09:57;100770.63;;;10.90;100.00
65880;BME280;52661;51.364;6.054;2023-02-22T12:16:03;100773.25;;;11.50;100.00
65880;BME280;52661;51.364;6.054;2023-02-22T12:21:03;100774.44;;;11.38;100.00
65880;BME280;52661;51.364;6.054;2023-02-22T12:23:41;100768.97;;;11.49;100.00
65880;BME280;52661;51.364;6.054;2023-02-22T12:26:28;100764.69;;;11.55;100.00
65880;BME280;52661;51.364;6.054;2023-02-22T12:29:05;100768.56;;;11.57;100.00
65880;BME280;52661;51.364;6.054;2023-02-22T12:32:11;100769.72;;;11.63;100.00
65880;BME280;52661;51.364;6.054;2023-02-22T12:37:27;100765.81;;;11.68;100.00
65880;BME280;52661;51.364;6.054;2023-02-22T12:40:23;100765.81;;;11.71;100.00
65880;BME280;52661;51.364;6.054;2023-02-22T12:43:05;100762.28;;;11.81;100.00
65880;BME280;52661;51.364;6.054;2023-02-22T12:45:59;100761.44;;;11.95;100.00
65880;BME280;52661;51.364;6.054;2023-02-22T12:51:16;100764.94;;;11.96;100.00
65880;BME280;52661;51.364;6.054;2023-02-22T12:53:51;100760.72;;;11.84;100.00
65880;BME280;52661;51.364;6.054;2023-02-22T12:56:47;100769.31;;;11.72;100.00
65880;BME280;52661;51.364;6.054;2023-02-22T12:59:38;100765.06;;;11.57;100.00
65880;BME280;52661;51.364;6.054;2023-02-22T13:02:17;100760.44;;;11.43;100.00
65880;BME280;52661;51.364;6.054;2023-02-22T13:04:44;100759.66;;;11.53;100.00
65880;BME280;52661;51.364;6.054;2023-02-22T13:12:56;100767.00;;;11.60;100.00
65880;BME280;52661;51.364;6.054;2023-02-22T13:19:04;100755.97;;;11.99;100.00
65880;BME280;52661;51.364;6.054;2023-02-22T13:26:39;100756.75;;;11.99;100.00
65880;BME280;52661;51.364;6.054;2023-02-22T13:29:12;100752.03;;;12.10;100.00
65880;BME280;52661;51.364;6.054;2023-02-22T13:31:49;100750.47;;;12.13;100.00
65880;BME280;52661;51.364;6.054;2023-02-22T13:48:00;100737.19;;;12.22;100.00
65880;BME280;52661;51.364;6.054;2023-02-22T13:53:51;100733.78;;;12.07;100.00
65880;BME280;52661;51.364;6.054;2023-02-22T13:56:21;100737.28;;;12.08;100.00
65880;BME280;52661;51.364;6.054;2023-02-22T13:58:53;100740.00;;;12.11;100.00
65880;BME280;52661;51.364;6.054;2023-02-22T14:01:47;100737.97;;;12.26;100.00
65880;BME280;52661;51.364;6.054;2023-02-22T14:04:35;100736.75;;;12.30;100.00
65880;BME280;52661;51.364;6.054;2023-02-22T14:07:49;100737.88;;;12.37;100.00
65880;BME280;52661;51.364;6.054;2023-02-22T14:09:54;100736.38;;;12.28;100.00
65880;BME280;52661;51.364;6.054;2023-02-22T14:17:47;100748.16;;;12.11;100.00
65880;BME280;52661;51.364;6.054;2023-02-22T14:22:45;100743.16;;;11.99;100.00
65880;BME280;52661;51.364;6.054;2023-02-22T14:25:48;100741.63;;;11.95;100.00
65880;BME280;52661;51.364;6.054;2023-02-22T14:31:10;100749.44;;;11.86;100.00
65880;BME280;52661;51.364;6.054;2023-02-22T14:39:12;100754.94;;;11.75;100.00
65880;BME280;52661;51.364;6.054;2023-02-22T14:41:44;100753.38;;;11.67;100.00
65880;BME280;52661;51.364;6.054;2023-02-22T14:44:11;100755.69;;;11.65;100.00
65880;BME280;52661;51.364;6.054;2023-02-22T14:46:40;100749.88;;;11.66;100.00
65880;BME280;52661;51.364;6.054;2023-02-22T14:49:08;100756.88;;;11.64;100.00